Time;durP1;ratioP1;P1;durP2;ratioP2;P2;SDS_P1;SDS_P2;PMS_P1;PMS_P2;Temp;Humidity;BMP_temperature;BMP_pressure;BME280_temperature;BME280_humidity;BME280_pressure;Samples;Min_cycle;Max_cycle;Signal;HPM_P1;HPM_P2
2021/12/18 00:00:05;;;;;;;8.13;5.80;;;;;;;4.80;67.12;101125.81;5009481;23;20205;-82
2021/12/18 00:03:12;;;;;;;9.57;6.23;;;;;;;4.81;66.94;101128.28;5004209;23;20211;-82
2021/12/18 00:05:54;;;;;;;8.07;5.87;;;;;;;4.90;66.72;101123.13;5005484;23;20314;-82
2021/12/18 00:08:26;;;;;;;8.50;5.80;;;;;;;4.93;67.06;101122.81;5001988;23;20623;-82
2021/12/18 00:11:00;;;;;;;7.80;5.83;;;;;;;4.86;66.41;101123.38;5021942;23;20602;-82
2021/12/18 00:13:31;;;;;;;9.20;6.73;;;;;;;4.83;67.25;101126.34;5039704;23;20225;-82
2021/12/18 00:16:07;;;;;;;7.70;6.30;;;;;;;4.81;67.05;101122.16;5008512;28;20262;-82
2021/12/18 00:18:45;;;;;;;8.03;6.03;;;;;;;4.85;66.90;101140.28;4991300;28;20226;-82
2021/12/18 00:21:17;;;;;;;9.73;6.10;;;;;;;4.77;66.99;101124.25;5003960;23;20318;-82
2021/12/18 00:24:02;;;;;;;7.73;6.23;;;;;;;4.93;67.05;101131.63;5008345;28;20231;-82
2021/12/18 00:26:44;;;;;;;8.13;6.03;;;;;;;4.99;66.60;101133.69;4990811;28;20255;-82
2021/12/18 00:29:39;;;;;;;8.13;6.20;;;;;;;4.89;67.34;101138.22;5049263;23;20224;-83
2021/12/18 00:32:36;;;;;;;10.23;6.57;;;;;;;4.81;67.60;101138.91;4967737;29;20270;-82
2021/12/18 00:35:21;;;;;;;8.57;6.23;;;;;;;4.93;67.09;101134.28;4971449;29;20229;-82
2021/12/18 00:38:51;;;;;;;9.33;5.87;;;;;;;4.90;67.17;101123.91;4994015;23;20234;-82
2021/12/18 00:45:36;;;;;;;9.00;6.53;;;;;;;4.79;67.39;101122.31;4966210;28;20246;-82
2021/12/18 00:48:22;;;;;;;8.10;6.20;;;;;;;4.91;66.95;101117.63;5015414;23;20227;-83
2021/12/18 00:51:04;;;;;;;9.23;5.80;;;;;;;4.81;66.86;101111.53;4995749;28;20231;-82
2021/12/18 00:53:36;;;;;;;9.57;6.43;;;;;;;4.90;67.23;101109.84;5003260;23;20223;-82
2021/12/18 00:56:54;;;;;;;9.53;6.50;;;;;;;4.88;66.86;101121.44;4978715;28;20228;-82
2021/12/18 01:00:25;;;;;;;9.13;6.10;;;;;;;4.91;67.31;101111.47;5006710;23;20228;-82
2021/12/18 01:03:18;;;;;;;7.87;6.40;;;;;;;4.97;67.24;101116.22;4994327;28;20275;-82
2021/12/18 01:06:57;;;;;;;10.90;7.20;;;;;;;4.91;66.68;101125.59;5200775;23;20224;-82
2021/12/18 01:10:35;;;;;;;10.30;6.97;;;;;;;4.99;66.88;101128.38;4997976;28;20196;-82
2021/12/18 01:14:22;;;;;;;10.17;7.07;;;;;;;4.99;67.33;101143.47;5008436;23;20255;-81
2021/12/18 01:22:59;;;;;;;9.00;7.17;;;;;;;4.94;67.66;101140.44;5012852;23;20219;-82
2021/12/18 01:25:48;;;;;;;11.83;7.63;;;;;;;4.97;67.16;101140.97;5036498;23;20241;-81
2021/12/18 01:28:58;;;;;;;12.00;7.50;;;;;;;4.92;67.74;101145.03;5020914;23;20243;-82
2021/12/18 01:31:56;;;;;;;10.03;7.57;;;;;;;5.15;67.72;101162.25;5014967;28;20207;-82
2021/12/18 01:34:46;;;;;;;10.93;7.47;;;;;;;4.93;67.27;101147.56;5013590;28;20702;-82
2021/12/18 01:37:15;;;;;;;10.73;7.37;;;;;;;5.18;67.25;101162.00;4996205;28;20228;-82
2021/12/18 01:39:43;;;;;;;10.70;8.03;;;;;;;5.07;67.59;101159.50;4996523;28;20295;-82
2021/12/18 01:53:20;;;;;;;9.10;7.17;;;;;;;5.17;67.17;101166.47;4978770;28;20244;-82
2021/12/18 01:55:50;;;;;;;11.90;7.90;;;;;;;5.04;67.60;101147.34;4976879;28;20230;-82
2021/12/18 01:58:22;;;;;;;9.90;7.27;;;;;;;5.10;67.28;101152.06;4992084;28;20295;-82
2021/12/18 02:01:04;;;;;;;10.50;7.70;;;;;;;5.13;67.33;101161.59;4992824;28;20243;-82
2021/12/18 02:03:34;;;;;;;9.77;7.30;;;;;;;5.04;67.18;101162.47;4977676;28;20262;-82
2021/12/18 02:06:05;;;;;;;9.57;7.50;;;;;;;4.98;67.24;101152.44;4976001;28;20507;-82
2021/12/18 02:08:33;;;;;;;10.23;7.33;;;;;;;4.98;67.09;101139.97;4959227;28;20259;-82
2021/12/18 02:11:23;;;;;;;11.93;7.60;;;;;;;5.12;66.96;101162.56;4995741;23;20285;-82
2021/12/18 02:23:00;;;;;;;11.43;7.27;;;;;;;5.17;66.27;101147.88;4990920;28;20231;-82
2021/12/18 02:25:30;;;;;;;9.90;7.17;;;;;;;5.17;66.87;101169.13;4989621;28;20208;-81
2021/12/18 02:27:58;;;;;;;11.57;8.10;;;;;;;5.13;67.50;101156.28;4991109;28;20306;-82
2021/12/18 02:30:31;;;;;;;11.23;7.57;;;;;;;5.15;67.39;101156.94;4991091;28;20228;-82
2021/12/18 02:33:02;;;;;;;10.80;6.97;;;;;;;5.11;66.88;101156.41;4990951;28;20236;-82
2021/12/18 02:35:35;;;;;;;11.37;7.30;;;;;;;5.00;67.18;101151.28;4990461;28;20228;-82
2021/12/18 02:38:11;;;;;;;10.27;7.80;;;;;;;5.04;67.61;101173.91;4990971;28;20232;-82
2021/12/18 02:43:38;;;;;;;8.97;7.33;;;;;;;4.98;67.88;101171.84;5008405;23;20207;-82
2021/12/18 02:46:09;;;;;;;11.57;7.90;;;;;;;4.98;68.23;101174.50;5001184;23;20243;-82
2021/12/18 02:48:57;;;;;;;10.87;7.60;;;;;;;5.06;67.85;101179.09;5010383;28;20276;-82
2021/12/18 02:51:25;;;;;;;9.07;6.83;;;;;;;5.00;67.81;101174.34;4993800;28;20219;-82
2021/12/18 02:53:54;;;;;;;10.03;7.43;;;;;;;4.93;67.47;101160.84;4992828;28;20223;-81
2021/12/18 02:56:25;;;;;;;10.47;7.57;;;;;;;5.02;68.70;101161.78;5004943;28;20242;-82
2021/12/18 02:58:58;;;;;;;10.33;7.50;;;;;;;4.87;68.24;101166.72;5009665;23;20227;-81
2021/12/18 03:01:28;;;;;;;9.87;7.53;;;;;;;5.03;68.45;101166.09;4954547;28;20239;-82
2021/12/18 03:04:28;;;;;;;11.27;7.57;;;;;;;4.98;68.35;101155.91;4969500;28;20591;-82
2021/12/18 03:07:00;;;;;;;11.17;8.37;;;;;;;4.92;68.36;101150.34;4972302;28;20220;-81
2021/12/18 03:23:38;;;;;;;12.87;8.93;;;;;;;4.90;68.14;101185.00;4986455;28;20248;-81
2021/12/18 03:26:06;;;;;;;12.73;8.90;;;;;;;4.88;68.57;101193.13;4984258;28;20278;-82
2021/12/18 03:28:32;;;;;;;12.43;9.03;;;;;;;4.92;68.56;101190.19;4969081;28;20640;-81
2021/12/18 03:30:59;;;;;;;12.90;9.30;;;;;;;4.90;68.63;101182.34;4968445;28;20240;-81
2021/12/18 03:33:28;;;;;;;11.67;9.00;;;;;;;4.87;68.80;101182.66;5000377;23;20326;-84
2021/12/18 03:36:10;;;;;;;12.50;8.77;;;;;;;4.88;68.71;101192.31;5003813;28;20234;-84
2021/12/18 03:38:37;;;;;;;13.23;9.80;;;;;;;4.83;69.62;101186.59;4989539;28;20254;-84
2021/12/18 03:41:05;;;;;;;12.10;9.37;;;;;;;4.68;69.45;101180.88;4988222;28;20257;-84
2021/12/18 03:43:32;;;;;;;13.23;9.63;;;;;;;4.80;69.49;101182.41;4988807;28;20243;-84
2021/12/18 03:45:59;;;;;;;13.67;9.57;;;;;;;4.80;69.75;101182.41;5005582;28;20223;-84
2021/12/18 03:48:29;;;;;;;13.13;10.07;;;;;;;4.74;69.45;101198.06;5005224;28;20231;-84
2021/12/18 03:50:56;;;;;;;13.53;10.33;;;;;;;4.79;69.72;101188.69;5004886;28;20299;-84
2021/12/18 03:53:23;;;;;;;14.20;11.00;;;;;;;4.58;69.64;101158.84;5000260;23;20223;-84
2021/12/18 03:55:49;;;;;;;13.70;10.23;;;;;;;4.66;69.87;101176.72;5006917;28;20309;-82
2021/12/18 03:58:23;;;;;;;14.53;9.53;;;;;;;4.79;70.18;101194.00;5010034;23;20236;-84
2021/12/18 04:00:50;;;;;;;13.13;10.50;;;;;;;4.63;70.19;101179.66;4992000;28;20238;-84
2021/12/18 04:03:17;;;;;;;15.30;10.10;;;;;;;4.77;69.31;101174.72;5009127;28;20298;-84
2021/12/18 04:05:44;;;;;;;13.67;9.77;;;;;;;4.79;69.81;101180.72;5008741;28;20279;-84
2021/12/18 04:08:11;;;;;;;12.97;9.10;;;;;;;4.69;69.40;101176.44;5017885;23;20246;-84
2021/12/18 04:11:00;;;;;;;13.77;9.80;;;;;;;4.75;69.52;101173.19;4938045;28;20235;-84
2021/12/18 04:13:28;;;;;;;12.87;9.40;;;;;;;4.76;69.36;101161.56;4985847;28;20242;-84
2021/12/18 04:15:57;;;;;;;12.27;9.03;;;;;;;4.71;69.81;101163.84;4953775;28;20263;-84
2021/12/18 04:18:25;;;;;;;13.70;9.97;;;;;;;4.78;69.46;101181.72;5089545;23;20230;-84
2021/12/18 04:20:57;;;;;;;14.73;9.70;;;;;;;4.73;69.57;101173.34;4992360;28;20246;-83
2021/12/18 04:23:24;;;;;;;11.97;9.20;;;;;;;4.68;69.86;101174.75;5007178;28;20234;-84
2021/12/18 04:25:51;;;;;;;10.83;9.07;;;;;;;4.64;69.42;101178.66;5008828;28;20229;-84
2021/12/18 04:28:18;;;;;;;12.97;8.77;;;;;;;4.68;69.78;101182.72;5008771;28;20207;-83
2021/12/18 04:30:45;;;;;;;10.57;8.50;;;;;;;4.67;69.39;101173.91;5025332;28;20641;-84
2021/12/18 04:33:12;;;;;;;12.37;9.03;;;;;;;4.67;69.67;101183.69;5008280;28;20229;-84
2021/12/18 04:35:39;;;;;;;13.13;9.53;;;;;;;4.67;69.87;101202.25;4992548;28;20219;-81
2021/12/18 04:38:09;;;;;;;13.37;9.23;;;;;;;4.74;69.84;101201.56;5012065;23;20223;-81
2021/12/18 04:40:36;;;;;;;11.57;9.10;;;;;;;4.77;69.26;101201.28;5006186;28;20270;-83
2021/12/18 04:43:06;;;;;;;12.83;9.03;;;;;;;4.82;69.29;101216.78;4988500;28;20255;-84
2021/12/18 04:45:38;;;;;;;11.43;8.93;;;;;;;4.83;69.35;101213.13;4990717;28;20753;-84
2021/12/18 04:48:05;;;;;;;12.80;9.30;;;;;;;4.68;69.52;101180.88;5005389;28;20196;-84
2021/12/18 04:50:32;;;;;;;11.53;8.90;;;;;;;4.85;69.58;101208.53;5010981;23;20227;-84
2021/12/18 04:53:02;;;;;;;12.10;9.20;;;;;;;4.85;69.66;101213.84;5000201;28;20240;-83
2021/12/18 04:55:30;;;;;;;11.43;9.67;;;;;;;4.77;69.80;101205.75;4991786;23;20224;-83
2021/12/18 04:58:02;;;;;;;13.70;10.30;;;;;;;4.78;70.37;101212.72;5007438;23;20292;-83
2021/12/18 05:00:46;;;;;;;11.97;9.40;;;;;;;4.81;69.92;101215.94;4934054;28;20636;-83
2021/12/18 05:03:17;;;;;;;13.87;10.23;;;;;;;4.62;69.93;101212.50;4966512;28;20256;-84
2021/12/18 05:05:44;;;;;;;12.70;9.67;;;;;;;4.70;70.54;101213.47;4951232;29;20212;-83
2021/12/18 05:08:11;;;;;;;12.60;9.47;;;;;;;4.64;70.62;101210.53;4965412;29;20241;-84
2021/12/18 05:10:38;;;;;;;13.93;9.80;;;;;;;4.53;70.46;101214.16;4949722;29;20260;-84
2021/12/18 05:13:05;;;;;;;14.00;10.10;;;;;;;4.51;70.60;101213.50;4966236;28;20232;-83
2021/12/18 05:15:40;;;;;;;14.20;10.07;;;;;;;4.64;70.51;101221.16;4965576;29;20235;-84
2021/12/18 05:18:09;;;;;;;12.00;9.53;;;;;;;4.73;69.96;101226.44;4964970;29;20236;-83
2021/12/18 05:20:36;;;;;;;11.87;8.70;;;;;;;4.67;69.18;101207.56;4966644;29;20227;-84
2021/12/18 05:23:03;;;;;;;11.43;8.57;;;;;;;4.69;69.17;101217.09;4949318;28;20232;-84
2021/12/18 05:25:33;;;;;;;12.00;8.50;;;;;;;4.76;69.05;101226.13;4965352;29;20213;-84
2021/12/18 05:28:00;;;;;;;11.10;8.47;;;;;;;4.79;68.72;101222.38;4950407;29;20704;-84
2021/12/18 05:30:27;;;;;;;11.17;8.50;;;;;;;4.70;69.15;101220.59;4966124;29;20248;-84
2021/12/18 05:32:53;;;;;;;12.70;9.03;;;;;;;4.69;68.71;101214.44;4950003;29;20232;-84
2021/12/18 05:35:20;;;;;;;10.80;8.27;;;;;;;4.77;68.54;101216.38;4966114;29;20300;-83
2021/12/18 05:37:50;;;;;;;11.20;8.20;;;;;;;4.79;68.29;101217.91;4932712;29;20680;-84
2021/12/18 05:40:39;;;;;;;10.30;7.77;;;;;;;4.80;68.35;101232.88;5014069;23;20251;-84
2021/12/18 05:43:09;;;;;;;12.07;8.27;;;;;;;4.86;68.15;101221.66;4993989;28;20233;-84
2021/12/18 05:45:38;;;;;;;11.13;7.57;;;;;;;4.76;68.23;101238.56;5029477;28;20242;-84
2021/12/18 05:48:08;;;;;;;11.87;8.30;;;;;;;4.68;68.56;101228.69;4993218;23;20246;-83
2021/12/18 05:50:35;;;;;;;10.93;8.10;;;;;;;4.54;68.95;101229.13;4988655;28;20686;-83
2021/12/18 05:53:02;;;;;;;12.47;8.53;;;;;;;4.56;69.32;101255.53;4973807;28;20276;-84
2021/12/18 05:55:35;;;;;;;10.50;8.40;;;;;;;4.49;69.72;101246.44;4979457;23;20577;-83
2021/12/18 05:58:03;;;;;;;11.07;7.87;;;;;;;4.44;69.65;101246.88;4986796;28;20227;-83
2021/12/18 06:00:31;;;;;;;11.50;8.30;;;;;;;4.33;70.05;101263.81;4988072;28;20224;-83
2021/12/18 06:02:57;;;;;;;12.17;8.27;;;;;;;4.40;70.22;101264.91;4987982;28;20220;-83
2021/12/18 06:05:26;;;;;;;9.73;7.73;;;;;;;4.38;69.97;101268.69;4986672;28;20228;-84
2021/12/18 06:07:58;;;;;;;10.17;8.00;;;;;;;4.36;70.42;101254.72;4987943;28;20224;-83
2021/12/18 06:10:28;;;;;;;10.93;8.60;;;;;;;4.45;69.60;101269.78;4987494;28;20299;-83
2021/12/18 06:12:57;;;;;;;10.13;8.10;;;;;;;4.45;69.67;101253.88;4971499;28;20298;-83
2021/12/18 06:15:27;;;;;;;11.70;8.57;;;;;;;4.39;69.94;101260.56;4986925;28;20319;-83
2021/12/18 06:17:55;;;;;;;11.33;8.90;;;;;;;4.48;69.96;101264.19;4988484;28;20247;-83
2021/12/18 06:20:23;;;;;;;11.63;8.80;;;;;;;4.37;70.15;101267.00;4988633;28;20580;-83
2021/12/18 06:22:51;;;;;;;10.60;8.53;;;;;;;4.36;70.11;101263.50;4973484;28;20220;-84
2021/12/18 06:25:19;;;;;;;11.07;8.87;;;;;;;4.35;70.39;101261.81;4974103;28;20224;-83
2021/12/18 06:27:46;;;;;;;11.50;8.63;;;;;;;4.37;69.67;101257.22;4989329;28;20232;-84
2021/12/18 06:30:17;;;;;;;11.50;8.53;;;;;;;4.49;69.79;101262.38;4988877;28;20227;-83
2021/12/18 06:32:47;;;;;;;11.57;8.60;;;;;;;4.47;69.32;101264.34;4995559;23;20696;-84
2021/12/18 06:35:21;;;;;;;11.83;7.93;;;;;;;4.47;69.10;101262.53;4973793;28;20239;-83
2021/12/18 06:37:47;;;;;;;9.67;7.37;;;;;;;4.47;69.06;101265.19;4971185;28;20247;-83
2021/12/18 06:40:26;;;;;;;11.00;8.10;;;;;;;4.40;69.03;101262.25;4988631;28;20227;-83
2021/12/18 06:42:53;;;;;;;8.70;6.90;;;;;;;4.40;69.53;101245.47;4971129;28;20259;-84
2021/12/18 06:45:27;;;;;;;11.50;7.70;;;;;;;4.40;69.04;101272.88;4956621;28;20231;-83
2021/12/18 06:47:59;;;;;;;10.97;7.63;;;;;;;4.50;68.33;101264.91;4989814;28;20204;-83
2021/12/18 06:50:26;;;;;;;9.53;7.67;;;;;;;4.54;67.78;101265.44;4987586;28;20295;-84
2021/12/18 06:52:56;;;;;;;9.77;7.13;;;;;;;4.56;68.16;101266.16;4965861;23;20227;-84
2021/12/18 06:55:33;;;;;;;8.57;6.73;;;;;;;4.48;67.66;101261.53;4990950;28;20313;-83
2021/12/18 06:58:04;;;;;;;8.70;6.77;;;;;;;4.73;66.69;101268.91;5006307;28;20584;-83
2021/12/18 07:00:35;;;;;;;9.37;7.03;;;;;;;4.69;66.50;101261.38;5007280;28;20203;-84
2021/12/18 07:03:02;;;;;;;8.83;7.10;;;;;;;4.69;66.68;101262.22;5008503;28;20238;-83
2021/12/18 07:05:29;;;;;;;9.23;7.00;;;;;;;4.88;65.79;101262.19;4990727;28;20219;-83
2021/12/18 07:07:56;;;;;;;10.67;7.10;;;;;;;4.95;66.27;101264.25;5008205;28;20227;-83
2021/12/18 07:10:25;;;;;;;9.13;6.70;;;;;;;4.98;66.30;101278.09;5014824;23;20426;-84
2021/12/18 07:12:54;;;;;;;10.17;7.40;;;;;;;5.02;66.60;101282.16;4990590;28;20218;-84
2021/12/18 07:15:21;;;;;;;9.93;7.57;;;;;;;5.00;66.32;101280.59;5008299;28;20235;-83
2021/12/18 07:17:50;;;;;;;13.23;9.10;;;;;;;5.03;66.27;101272.38;4981654;23;20468;-83
2021/12/18 07:20:19;;;;;;;10.53;8.03;;;;;;;5.07;66.47;101271.94;4990525;28;20239;-83
2021/12/18 07:22:46;;;;;;;11.17;8.80;;;;;;;5.07;65.82;101250.69;5008470;28;20226;-83
2021/12/18 07:25:17;;;;;;;9.50;7.47;;;;;;;5.13;66.50;101247.41;4991122;28;20235;-83
2021/12/18 07:27:45;;;;;;;11.03;8.20;;;;;;;5.17;65.56;101245.34;5007200;28;20231;-83
2021/12/18 07:30:13;;;;;;;10.03;7.67;;;;;;;5.20;65.70;101242.38;4988209;23;20228;-83
2021/12/18 07:32:43;;;;;;;9.90;8.00;;;;;;;4.99;66.66;101223.16;4972178;28;20196;-83
2021/12/18 07:35:14;;;;;;;10.63;8.03;;;;;;;5.00;65.85;101230.13;4970869;28;20248;-83
2021/12/18 07:37:41;;;;;;;10.00;7.50;;;;;;;4.86;66.22;101229.63;4970455;28;20220;-83
2021/12/18 07:40:17;;;;;;;10.53;8.23;;;;;;;4.79;66.17;101227.69;4987795;28;20232;-83
2021/12/18 07:42:45;;;;;;;10.37;7.73;;;;;;;4.60;66.32;101230.38;4988933;28;20192;-83
2021/12/18 07:45:16;;;;;;;11.40;8.43;;;;;;;4.57;66.18;101233.34;4985993;28;20212;-83
2021/12/18 07:47:43;;;;;;;11.03;7.70;;;;;;;4.49;66.93;101227.88;4969983;28;20231;-83
2021/12/18 07:50:18;;;;;;;11.10;7.93;;;;;;;4.38;66.81;101229.72;4962837;28;20668;-83
2021/12/18 07:52:47;;;;;;;12.27;8.53;;;;;;;4.54;66.93;101226.47;4958559;28;20235;-82
2021/12/18 07:55:14;;;;;;;11.43;8.10;;;;;;;4.49;67.38;101238.50;4970544;28;20211;-83
2021/12/18 07:57:41;;;;;;;13.80;8.70;;;;;;;4.48;67.37;101239.50;4978362;28;20231;-83
2021/12/18 08:00:13;;;;;;;10.67;8.70;;;;;;;4.52;67.97;101241.72;4960316;28;20220;-83
2021/12/18 08:02:43;;;;;;;12.37;8.97;;;;;;;4.56;67.65;101240.44;4985636;28;20231;-84
2021/12/18 08:05:14;;;;;;;13.03;8.70;;;;;;;4.65;67.53;101249.38;4970082;28;20551;-82
2021/12/18 08:07:43;;;;;;;11.73;7.93;;;;;;;4.70;67.36;101255.09;4999031;23;20261;-83
2021/12/18 08:10:13;;;;;;;10.93;8.17;;;;;;;4.66;66.70;101246.59;4993812;28;20223;-84
2021/12/18 08:12:41;;;;;;;10.93;8.47;;;;;;;4.76;66.38;101263.31;5024813;28;20235;-83
2021/12/18 08:15:13;;;;;;;10.87;8.67;;;;;;;4.79;66.83;101248.94;5008948;28;20269;-83
2021/12/18 08:17:40;;;;;;;8.83;6.90;;;;;;;4.77;66.41;101238.44;5024917;28;20225;-83
2021/12/18 08:20:15;;;;;;;10.63;7.40;;;;;;;4.88;66.07;101242.75;5024166;28;20230;-83
2021/12/18 08:22:45;;;;;;;9.43;7.20;;;;;;;5.00;65.07;101254.03;4997549;23;20235;-83
2021/12/18 08:25:20;;;;;;;10.10;7.37;;;;;;;5.00;65.11;101256.69;5031724;23;20215;-83
2021/12/18 08:27:55;;;;;;;10.30;7.17;;;;;;;5.02;64.79;101258.25;4989894;28;20279;-82
2021/12/18 08:30:35;;;;;;;8.13;6.07;;;;;;;5.15;64.35;101268.53;5013819;23;20183;-82
2021/12/18 08:33:29;;;;;;;8.13;6.03;;;;;;;5.31;63.99;101271.44;5002335;28;20646;-82
2021/12/18 08:35:55;;;;;;;7.60;5.63;;;;;;;5.32;62.84;101257.13;5010504;28;20243;-83
2021/12/18 08:38:31;;;;;;;8.27;5.67;;;;;;;5.40;62.70;101259.91;5061186;23;20231;-81
2021/12/18 08:40:58;;;;;;;6.90;5.37;;;;;;;5.44;62.94;101271.09;4941902;29;20224;-83
2021/12/18 08:43:25;;;;;;;8.47;5.73;;;;;;;5.55;61.68;101263.75;4957320;23;20276;-83
2021/12/18 08:45:55;;;;;;;7.60;5.40;;;;;;;5.60;61.88;101255.34;5004171;28;20290;-82
2021/12/18 08:48:22;;;;;;;8.33;5.43;;;;;;;5.48;61.93;101260.00;4986416;28;20282;-83
2021/12/18 08:50:49;;;;;;;7.17;5.87;;;;;;;5.51;62.02;101257.06;4987822;28;20254;-82
2021/12/18 08:53:16;;;;;;;5.90;5.20;;;;;;;5.63;61.59;101247.91;4986793;28;20250;-83
2021/12/18 08:55:46;;;;;;;7.10;5.40;;;;;;;5.76;61.64;101269.66;4967994;28;20228;-83
2021/12/18 08:58:14;;;;;;;7.63;5.73;;;;;;;5.66;61.73;101241.44;4994737;28;20250;-83
2021/12/18 09:00:41;;;;;;;7.77;5.93;;;;;;;5.76;61.48;101240.41;4987486;28;20239;-83
2021/12/18 09:03:10;;;;;;;8.43;6.13;;;;;;;5.90;61.36;101236.44;4987714;28;20243;-83
2021/12/18 09:05:37;;;;;;;6.40;5.63;;;;;;;5.90;61.77;101248.88;5004363;28;20208;-83
2021/12/18 09:08:05;;;;;;;8.07;6.30;;;;;;;5.89;61.64;101236.56;4986593;28;20283;-83
2021/12/18 09:10:35;;;;;;;9.57;6.27;;;;;;;5.97;62.03;101257.97;5002731;28;20231;-83
2021/12/18 09:13:02;;;;;;;8.57;6.00;;;;;;;5.94;61.51;101255.59;4985892;28;20229;-84
2021/12/18 09:15:29;;;;;;;7.63;6.00;;;;;;;5.90;61.53;101263.03;4985608;28;20254;-83
2021/12/18 09:17:59;;;;;;;9.30;6.07;;;;;;;6.04;61.39;101257.19;4988732;28;20238;-83
2021/12/18 09:20:27;;;;;;;7.57;5.23;;;;;;;5.96;60.77;101254.47;5005234;28;20219;-83
2021/12/18 09:22:53;;;;;;;7.10;5.47;;;;;;;5.93;60.51;101251.25;5005973;28;20294;-83
2021/12/18 09:25:20;;;;;;;5.83;4.90;;;;;;;6.08;59.78;101253.25;4990914;28;20215;-83
2021/12/18 09:27:50;;;;;;;6.97;5.40;;;;;;;6.04;60.26;101251.03;5006855;28;20562;-83
2021/12/18 09:30:18;;;;;;;6.33;4.93;;;;;;;6.11;60.09;101244.13;5005876;28;20237;-83
2021/12/18 09:32:46;;;;;;;7.37;5.10;;;;;;;6.07;60.49;101229.44;5005908;28;20281;-83
2021/12/18 09:35:15;;;;;;;7.20;5.27;;;;;;;6.07;60.35;101230.28;4990261;28;20231;-83
2021/12/18 09:37:43;;;;;;;6.27;4.77;;;;;;;6.03;60.12;101228.91;4989272;28;20267;-83
2021/12/18 09:40:14;;;;;;;6.27;5.03;;;;;;;6.19;59.99;101223.75;4993554;23;20244;-83
2021/12/18 09:42:41;;;;;;;7.63;5.00;;;;;;;6.19;60.02;101213.09;4954773;28;20251;-83
2021/12/18 09:45:08;;;;;;;7.33;5.07;;;;;;;6.20;59.54;101217.41;4987180;28;20279;-83
2021/12/18 09:47:38;;;;;;;5.73;5.13;;;;;;;6.30;59.89;101213.88;4972796;28;20224;-83
2021/12/18 09:50:08;;;;;;;7.23;5.43;;;;;;;6.21;59.70;101218.25;4984303;23;20238;-83
2021/12/18 09:52:36;;;;;;;6.63;5.27;;;;;;;6.25;59.46;101209.00;4991194;28;20287;-83
2021/12/18 09:55:11;;;;;;;6.37;4.90;;;;;;;6.33;59.04;101214.38;5009012;23;20232;-83
2021/12/18 09:57:42;;;;;;;7.33;4.97;;;;;;;6.39;59.11;101200.44;4970908;28;20224;-83
2021/12/18 10:00:14;;;;;;;6.67;5.20;;;;;;;6.35;59.20;101188.44;4989422;28;20276;-83
2021/12/18 10:02:42;;;;;;;5.97;5.00;;;;;;;6.44;59.04;101200.81;4983932;28;20235;-83
2021/12/18 10:05:22;;;;;;;6.50;4.67;;;;;;;6.48;59.19;101196.88;4968371;28;20237;-83
2021/12/18 10:08:17;;;;;;;5.43;4.47;;;;;;;6.58;58.20;101191.44;4967068;29;20240;-83
2021/12/18 10:11:00;;;;;;;5.53;4.60;;;;;;;6.60;57.73;101181.47;4986881;23;20232;-83
2021/12/18 10:13:31;;;;;;;6.90;4.53;;;;;;;6.73;57.88;101189.88;5005699;23;20228;-83
2021/12/18 10:16:12;;;;;;;7.30;4.43;;;;;;;6.77;57.27;101177.91;4965872;23;20658;-83
2021/12/18 10:18:45;;;;;;;4.00;3.40;;;;;;;6.77;56.54;101169.06;5004743;28;20244;-84
2021/12/18 10:21:20;;;;;;;4.63;3.97;;;;;;;6.63;57.30;101158.00;5016122;23;20207;-83
2021/12/18 10:23:50;;;;;;;6.37;4.60;;;;;;;6.61;56.97;101151.19;5013032;28;20231;-84
2021/12/18 10:26:37;;;;;;;5.33;4.03;;;;;;;6.78;57.29;101176.06;5011109;28;20192;-83
2021/12/18 10:29:21;;;;;;;5.93;4.10;;;;;;;6.70;56.62;101173.38;5015210;28;20261;-83
2021/12/18 10:31:50;;;;;;;5.10;3.93;;;;;;;6.67;56.98;101190.53;4983501;28;20242;-83
2021/12/18 10:34:20;;;;;;;7.20;4.40;;;;;;;6.85;57.64;101196.63;5008809;28;20222;-84
2021/12/18 10:37:08;;;;;;;5.27;3.80;;;;;;;6.92;56.13;101179.00;5008906;28;20229;-84
2021/12/18 10:39:38;;;;;;;6.03;3.93;;;;;;;7.06;56.09;101185.56;5007711;28;20233;-84
2021/12/18 10:42:19;;;;;;;6.03;4.33;;;;;;;7.28;55.87;101179.66;5023837;28;20222;-83
2021/12/18 10:45:20;;;;;;;5.07;4.20;;;;;;;7.55;54.97;101167.09;5008149;28;20222;-83
2021/12/18 10:48:03;;;;;;;5.27;4.00;;;;;;;7.59;53.80;101144.44;5023911;28;20241;-84
2021/12/18 10:50:54;;;;;;;5.20;4.10;;;;;;;7.74;53.47;101142.78;5008146;28;20241;-83
2021/12/18 10:53:29;;;;;;;5.53;3.70;;;;;;;7.60;53.61;101140.78;5008065;28;20234;-84
2021/12/18 10:56:04;;;;;;;4.63;3.70;;;;;;;7.84;53.80;101141.63;4991844;28;20253;-84
2021/12/18 10:58:41;;;;;;;5.53;3.80;;;;;;;7.88;53.25;101147.50;5025638;28;20233;-84
2021/12/18 11:01:16;;;;;;;4.63;3.77;;;;;;;8.11;53.08;101151.16;5006205;28;20313;-84
2021/12/18 11:03:45;;;;;;;5.50;3.70;;;;;;;7.90;53.13;101148.13;5006182;28;20234;-83
2021/12/18 11:06:32;;;;;;;5.63;4.40;;;;;;;8.05;52.80;101117.13;4990108;28;20222;-81
2021/12/18 11:09:07;;;;;;;5.87;4.13;;;;;;;8.18;52.75;101127.28;5023565;28;20227;-83
2021/12/18 11:14:18;;;;;;;5.07;3.80;;;;;;;7.97;52.71;101099.28;5023237;28;20638;-83
2021/12/18 11:16:53;;;;;;;4.90;3.67;;;;;;;8.24;51.95;101111.44;5006741;28;20231;-83
2021/12/18 11:19:24;;;;;;;6.23;4.27;;;;;;;8.42;52.05;101110.44;5008234;28;20317;-84
2021/12/18 11:21:55;;;;;;;6.57;4.43;;;;;;;8.31;52.97;101103.59;4987678;28;20257;-84
2021/12/18 11:24:31;;;;;;;5.27;4.77;;;;;;;8.23;52.79;101106.25;5004424;28;20250;-81
2021/12/18 11:27:08;;;;;;;5.53;4.47;;;;;;;8.16;52.76;101090.09;5005596;28;20298;-83
2021/12/18 11:29:46;;;;;;;5.97;4.87;;;;;;;8.16;53.14;101097.28;5022970;28;20286;-84
2021/12/18 11:32:22;;;;;;;5.70;4.70;;;;;;;8.33;52.70;101101.63;5005716;28;20227;-83
2021/12/18 11:34:54;;;;;;;6.13;5.07;;;;;;;8.35;53.17;101110.31;5006433;28;20241;-84
2021/12/18 11:37:25;;;;;;;7.03;5.07;;;;;;;8.20;53.13;101095.94;5019947;28;20305;-83
2021/12/18 11:39:59;;;;;;;5.80;5.03;;;;;;;8.19;53.24;101099.59;4987889;28;20235;-83
2021/12/18 11:42:36;;;;;;;5.77;4.80;;;;;;;8.24;52.92;101092.75;5004709;28;20246;-83
2021/12/18 11:45:06;;;;;;;5.63;4.67;;;;;;;8.26;53.15;101100.56;5007998;28;20231;-82
2021/12/18 11:47:41;;;;;;;6.00;4.60;;;;;;;8.15;53.25;101077.75;4992607;28;20242;-81
2021/12/18 11:50:18;;;;;;;5.37;4.87;;;;;;;8.32;52.87;101082.09;5009630;28;20206;-83
2021/12/18 11:53:13;;;;;;;6.77;5.23;;;;;;;8.29;53.25;101078.91;5004132;28;20214;-81
2021/12/18 11:55:48;;;;;;;6.77;4.90;;;;;;;8.11;53.55;101078.25;4973251;28;20242;-82
2021/12/18 11:58:27;;;;;;;6.57;5.17;;;;;;;8.13;52.93;101061.06;4982041;28;20231;-83
2021/12/18 12:01:00;;;;;;;6.77;5.20;;;;;;;8.12;52.97;101069.25;4982031;28;20286;-83
2021/12/18 12:03:33;;;;;;;7.60;5.23;;;;;;;8.02;53.61;101060.59;5002113;28;20227;-83
2021/12/18 12:06:04;;;;;;;6.53;5.20;;;;;;;8.06;53.60;101053.91;5003680;28;20701;-83
2021/12/18 12:08:37;;;;;;;6.37;4.77;;;;;;;8.19;52.84;101052.38;4981087;28;20227;-82
2021/12/18 12:11:23;;;;;;;5.00;4.50;;;;;;;8.00;53.13;101039.38;4984454;28;20231;-82
2021/12/18 12:14:02;;;;;;;7.27;5.17;;;;;;;7.83;53.05;101038.59;4967795;28;20594;-83
2021/12/18 12:16:47;;;;;;;6.57;5.20;;;;;;;7.74;52.74;101038.75;4999674;28;20314;-82
2021/12/18 12:19:37;;;;;;;5.67;4.60;;;;;;;7.57;53.24;101035.22;4967274;28;20243;-82
2021/12/18 12:22:18;;;;;;;5.93;4.87;;;;;;;7.42;53.84;101012.88;5003175;28;20255;-83
2021/12/18 12:24:57;;;;;;;6.73;5.20;;;;;;;7.41;54.74;101025.41;4982142;28;20676;-83
2021/12/18 12:27:28;;;;;;;5.70;4.73;;;;;;;7.59;54.10;101014.56;4965110;28;20259;-83
2021/12/18 12:29:56;;;;;;;5.93;4.80;;;;;;;7.64;54.37;101006.06;4965954;28;20275;-83
2021/12/18 12:32:24;;;;;;;6.37;5.30;;;;;;;7.76;54.40;101010.06;4981620;28;20226;-83
2021/12/18 12:35:17;;;;;;;6.43;5.20;;;;;;;7.72;53.59;100998.06;4982912;28;20235;-83
2021/12/18 12:37:50;;;;;;;6.50;4.87;;;;;;;7.48;54.03;100988.22;4981673;28;20235;-83
2021/12/18 12:40:21;;;;;;;6.57;5.13;;;;;;;7.40;54.41;100981.06;4984090;28;20231;-83
2021/12/18 12:43:11;;;;;;;6.10;5.10;;;;;;;7.56;54.10;100993.53;4987703;23;20251;-83
2021/12/18 12:46:08;;;;;;;5.63;4.53;;;;;;;7.62;53.95;100994.72;4995547;28;20224;-83
2021/12/18 12:49:02;;;;;;;5.47;4.93;;;;;;;7.70;54.76;100998.22;4985975;28;20223;-83
2021/12/18 12:51:57;;;;;;;6.27;5.10;;;;;;;7.52;54.95;100994.88;4977390;28;20255;-82